sensor_id;sensor_type;location;lat;lon;timestamp;pressure;altitude;pressure_sealevel;temperature;humidity
5777;BME280;2914;42.668;23.346;2023-02-10T00:01:53;96262.53;;;-1.61;59.21
5777;BME280;2914;42.668;23.346;2023-02-10T00:04:23;96263.98;;;-1.70;59.46
5777;BME280;2914;42.668;23.346;2023-02-10T00:06:52;96269.11;;;-1.94;60.52
5777;BME280;2914;42.668;23.346;2023-02-10T00:09:23;96263.82;;;-1.86;60.48
5777;BME280;2914;42.668;23.346;2023-02-10T00:11:52;96263.14;;;-1.98;61.31
5777;BME280;2914;42.668;23.346;2023-02-10T00:14:25;96263.20;;;-2.31;62.31
5777;BME280;2914;42.668;23.346;2023-02-10T00:16:55;96261.59;;;-2.39;63.50
5777;BME280;2914;42.668;23.346;2023-02-10T00:19:26;96254.42;;;-2.19;62.51
5777;BME280;2914;42.668;23.346;2023-02-10T00:21:56;96253.27;;;-2.29;62.01
5777;BME280;2914;42.668;23.346;2023-02-10T00:29:36;96254.73;;;-2.12;60.88
5777;BME280;2914;42.668;23.346;2023-02-10T00:32:05;96253.78;;;-2.35;61.19
5777;BME280;2914;42.668;23.346;2023-02-10T00:34:34;96254.39;;;-2.18;61.46
5777;BME280;2914;42.668;23.346;2023-02-10T00:37:06;96247.77;;;-2.07;60.78
5777;BME280;2914;42.668;23.346;2023-02-10T00:39:35;96252.91;;;-2.06;60.30
5777;BME280;2914;42.668;23.346;2023-02-10T00:44:42;96248.45;;;-2.25;61.04
5777;BME280;2914;42.668;23.346;2023-02-10T00:47:11;96243.52;;;-2.40;61.68
5777;BME280;2914;42.668;23.346;2023-02-10T00:49:40;96237.59;;;-2.47;61.98
5777;BME280;2914;42.668;23.346;2023-02-10T00:52:09;96232.66;;;-2.97;63.65
5777;BME280;2914;42.668;23.346;2023-02-10T00:54:38;96231.05;;;-3.44;66.03
5777;BME280;2914;42.668;23.346;2023-02-10T00:57:07;96227.31;;;-3.56;67.19
5777;BME280;2914;42.668;23.346;2023-02-10T00:59:36;96230.63;;;-3.45;67.31
5777;BME280;2914;42.668;23.346;2023-02-10T01:02:05;96226.84;;;-3.15;66.47
5777;BME280;2914;42.668;23.346;2023-02-10T01:04:36;96230.20;;;-3.08;66.14
5777;BME280;2914;42.668;23.346;2023-02-10T01:07:05;96223.28;;;-3.04;66.29
5777;BME280;2914;42.668;23.346;2023-02-10T01:12:12;96221.81;;;-2.91;66.06
5777;BME280;2914;42.668;23.346;2023-02-10T01:14:41;96224.80;;;-2.88;65.41
5777;BME280;2914;42.668;23.346;2023-02-10T01:17:10;96229.48;;;-2.86;65.26
5777;BME280;2914;42.668;23.346;2023-02-10T01:19:39;96225.03;;;-2.73;64.36
5777;BME280;2914;42.668;23.346;2023-02-10T01:22:08;96220.59;;;-2.95;63.93
5777;BME280;2914;42.668;23.346;2023-02-10T01:24:38;96213.28;;;-3.31;64.93
5777;BME280;2914;42.668;23.346;2023-02-10T01:27:07;96209.59;;;-3.11;64.08
5777;BME280;2914;42.668;23.346;2023-02-10T01:29:35;96208.58;;;-2.98;63.85
5777;BME280;2914;42.668;23.346;2023-02-10T01:32:05;96208.36;;;-2.82;63.33
5777;BME280;2914;42.668;23.346;2023-02-10T01:34:35;96207.39;;;-2.75;62.63
5777;BME280;2914;42.668;23.346;2023-02-10T01:37:04;96199.92;;;-2.63;62.30
5777;BME280;2914;42.668;23.346;2023-02-10T01:39:33;96201.50;;;-2.54;61.62
5777;BME280;2914;42.668;23.346;2023-02-10T01:45:18;96200.01;;;-2.39;60.90
5777;BME280;2914;42.668;23.346;2023-02-10T01:47:49;96195.78;;;-2.46;60.22
5777;BME280;2914;42.668;23.346;2023-02-10T01:50:21;96197.55;;;-2.48;59.85
5777;BME280;2914;42.668;23.346;2023-02-10T01:52:51;96194.18;;;-2.53;60.11
5777;BME280;2914;42.668;23.346;2023-02-10T01:55:22;96192.89;;;-2.53;59.96
5777;BME280;2914;42.668;23.346;2023-02-10T01:57:53;96188.55;;;-2.80;60.50
5777;BME280;2914;42.668;23.346;2023-02-10T02:00:23;96182.35;;;-3.00;61.29
5777;BME280;2914;42.668;23.346;2023-02-10T02:03:03;96179.75;;;-2.99;61.29
5777;BME280;2914;42.668;23.346;2023-02-10T02:05:34;96177.02;;;-2.88;60.71
5777;BME280;2914;42.668;23.346;2023-02-10T02:08:07;96179.99;;;-3.19;61.31
5777;BME280;2914;42.668;23.346;2023-02-10T02:10:43;96170.87;;;-3.11;61.62
5777;BME280;2914;42.668;23.346;2023-02-10T02:13:16;96166.44;;;-3.01;61.29
5777;BME280;2914;42.668;23.346;2023-02-10T02:18:30;96162.12;;;-2.69;60.64
5777;BME280;2914;42.668;23.346;2023-02-10T02:24:27;96159.56;;;-2.70;59.91
5777;BME280;2914;42.668;23.346;2023-02-10T02:27:05;96151.37;;;-3.00;59.42
5777;BME280;2914;42.668;23.346;2023-02-10T02:30:16;96157.84;;;-3.34;60.14
5777;BME280;2914;42.668;23.346;2023-02-10T02:32:48;96160.09;;;-3.44;60.86
5777;BME280;2914;42.668;23.346;2023-02-10T02:35:21;96156.45;;;-4.07;62.74
5777;BME280;2914;42.668;23.346;2023-02-10T02:37:52;96156.11;;;-4.14;63.98
5777;BME280;2914;42.668;23.346;2023-02-10T02:40:22;96153.19;;;-4.26;64.20
5777;BME280;2914;42.668;23.346;2023-02-10T02:42:51;96152.74;;;-4.22;64.64
5777;BME280;2914;42.668;23.346;2023-02-10T02:45:24;96153.86;;;-4.05;64.20
5777;BME280;2914;42.668;23.346;2023-02-10T02:48:03;96152.45;;;-3.93;63.99
5777;BME280;2914;42.668;23.346;2023-02-10T02:50:38;96149.63;;;-3.67;63.50
5777;BME280;2914;42.668;23.346;2023-02-10T02:53:28;96151.94;;;-3.85;63.87
5777;BME280;2914;42.668;23.346;2023-02-10T02:56:06;96153.86;;;-3.64;62.97
5777;BME280;2914;42.668;23.346;2023-02-10T02:58:40;96153.20;;;-3.42;62.01
5777;BME280;2914;42.668;23.346;2023-02-10T03:05:12;96154.87;;;-3.39;63.33
5777;BME280;2914;42.668;23.346;2023-02-10T03:07:42;96145.33;;;-3.33;64.21
5777;BME280;2914;42.668;23.346;2023-02-10T03:10:11;96145.78;;;-3.33;63.92
5777;BME280;2914;42.668;23.346;2023-02-10T03:12:40;96144.02;;;-3.30;63.85
5777;BME280;2914;42.668;23.346;2023-02-10T03:15:10;96149.11;;;-3.25;64.04
5777;BME280;2914;42.668;23.346;2023-02-10T03:17:39;96150.09;;;-3.35;64.61
5777;BME280;2914;42.668;23.346;2023-02-10T03:20:10;96157.68;;;-3.21;64.26
5777;BME280;2914;42.668;23.346;2023-02-10T03:22:41;96150.36;;;-3.22;64.18
5777;BME280;2914;42.668;23.346;2023-02-10T03:27:48;96154.41;;;-3.04;63.94
5777;BME280;2914;42.668;23.346;2023-02-10T03:30:17;96156.23;;;-3.09;63.88
5777;BME280;2914;42.668;23.346;2023-02-10T03:32:46;96160.25;;;-3.23;63.89
5777;BME280;2914;42.668;23.346;2023-02-10T03:35:16;96153.27;;;-3.15;63.64
5777;BME280;2914;42.668;23.346;2023-02-10T03:37:45;96157.30;;;-3.26;64.15
5777;BME280;2914;42.668;23.346;2023-02-10T03:40:15;96158.66;;;-3.32;64.94
5777;BME280;2914;42.668;23.346;2023-02-10T03:42:44;96150.48;;;-3.33;64.70
5777;BME280;2914;42.668;23.346;2023-02-10T03:45:13;96146.53;;;-3.25;64.88
5777;BME280;2914;42.668;23.346;2023-02-10T03:47:42;96146.50;;;-3.24;64.58
5777;BME280;2914;42.668;23.346;2023-02-10T03:50:11;96144.86;;;-3.29;64.88
5777;BME280;2914;42.668;23.346;2023-02-10T03:52:41;96140.97;;;-3.28;64.90
5777;BME280;2914;42.668;23.346;2023-02-10T03:55:10;96137.66;;;-3.37;65.25
5777;BME280;2914;42.668;23.346;2023-02-10T03:57:41;96131.02;;;-3.24;64.78
5777;BME280;2914;42.668;23.346;2023-02-10T04:03:26;96128.91;;;-3.27;67.58
5777;BME280;2914;42.668;23.346;2023-02-10T04:05:55;96130.59;;;-3.25;70.15
5777;BME280;2914;42.668;23.346;2023-02-10T04:08:24;96129.66;;;-3.19;68.81
5777;BME280;2914;42.668;23.346;2023-02-10T04:10:54;96129.13;;;-3.09;65.70
5777;BME280;2914;42.668;23.346;2023-02-10T04:13:23;96131.23;;;-3.07;64.66
5777;BME280;2914;42.668;23.346;2023-02-10T04:18:40;96121.75;;;-3.05;64.12
5777;BME280;2914;42.668;23.346;2023-02-10T04:21:10;96135.63;;;-3.14;63.94
5777;BME280;2914;42.668;23.346;2023-02-10T04:23:40;96136.61;;;-3.22;64.08
5777;BME280;2914;42.668;23.346;2023-02-10T04:26:09;96136.70;;;-3.30;64.27
5777;BME280;2914;42.668;23.346;2023-02-10T04:28:39;96132.92;;;-3.36;64.49
5777;BME280;2914;42.668;23.346;2023-02-10T04:31:08;96132.05;;;-3.37;64.52
5777;BME280;2914;42.668;23.346;2023-02-10T04:33:37;96139.78;;;-3.37;64.43
5777;BME280;2914;42.668;23.346;2023-02-10T04:36:08;96134.23;;;-3.38;64.40
5777;BME280;2914;42.668;23.346;2023-02-10T04:38:37;96131.23;;;-3.39;64.49
5777;BME280;2914;42.668;23.346;2023-02-10T04:41:07;96131.69;;;-3.43;65.70
5777;BME280;2914;42.668;23.346;2023-02-10T04:43:36;96135.96;;;-3.40;64.88
5777;BME280;2914;42.668;23.346;2023-02-10T04:46:05;96136.41;;;-3.41;64.72
5777;BME280;2914;42.668;23.346;2023-02-10T04:48:35;96141.19;;;-3.45;64.71
5777;BME280;2914;42.668;23.346;2023-02-10T04:51:07;96140.36;;;-3.48;65.17
5777;BME280;2914;42.668;23.346;2023-02-10T04:56:15;96142.33;;;-3.32;64.42
5777;BME280;2914;42.668;23.346;2023-02-10T05:01:22;96142.33;;;-3.32;64.46
5777;BME280;2914;42.668;23.346;2023-02-10T05:03:51;96141.50;;;-3.36;64.32
5777;BME280;2914;42.668;23.346;2023-02-10T05:06:20;96138.97;;;-3.39;64.25
5777;BME280;2914;42.668;23.346;2023-02-10T05:08:49;96146.73;;;-3.41;64.24
5777;BME280;2914;42.668;23.346;2023-02-10T05:11:19;96145.92;;;-3.46;64.27
5777;BME280;2914;42.668;23.346;2023-02-10T05:13:50;96146.79;;;-3.47;64.35
5777;BME280;2914;42.668;23.346;2023-02-10T05:16:19;96155.92;;;-3.56;64.55
5777;BME280;2914;42.668;23.346;2023-02-10T05:18:48;96152.92;;;-3.55;64.40
5777;BME280;2914;42.668;23.346;2023-02-10T05:21:17;96161.10;;;-3.58;64.39
5777;BME280;2914;42.668;23.346;2023-02-10T05:23:47;96158.63;;;-3.65;64.61
5777;BME280;2914;42.668;23.346;2023-02-10T05:26:16;96174.02;;;-3.59;64.92
5777;BME280;2914;42.668;23.346;2023-02-10T05:31:25;96183.41;;;-3.50;64.94
5777;BME280;2914;42.668;23.346;2023-02-10T05:41:20;96189.07;;;-3.22;64.20
5777;BME280;2914;42.668;23.346;2023-02-10T05:43:49;96197.20;;;-3.18;63.89
5777;BME280;2914;42.668;23.346;2023-02-10T05:46:18;96199.73;;;-3.15;63.68
5777;BME280;2914;42.668;23.346;2023-02-10T05:48:48;96193.17;;;-3.05;63.86
5777;BME280;2914;42.668;23.346;2023-02-10T05:51:17;96205.99;;;-2.98;63.16
5777;BME280;2914;42.668;23.346;2023-02-10T05:53:46;96216.14;;;-2.84;62.51
5777;BME280;2914;42.668;23.346;2023-02-10T05:56:15;96204.34;;;-2.71;62.22
5777;BME280;2914;42.668;23.346;2023-02-10T05:58:44;96204.22;;;-2.62;61.11
5777;BME280;2914;42.668;23.346;2023-02-10T06:01:13;96203.27;;;-2.57;60.77
5777;BME280;2914;42.668;23.346;2023-02-10T06:03:44;96202.56;;;-2.66;60.93
5777;BME280;2914;42.668;23.346;2023-02-10T06:06:13;96208.88;;;-2.89;61.56
5777;BME280;2914;42.668;23.346;2023-02-10T06:08:42;96207.22;;;-2.63;61.25
5777;BME280;2914;42.668;23.346;2023-02-10T06:11:11;96216.02;;;-2.44;60.59
5777;BME280;2914;42.668;23.346;2023-02-10T06:13:40;96214.17;;;-2.36;60.09
5777;BME280;2914;42.668;23.346;2023-02-10T06:16:10;96226.17;;;-2.96;60.44
5777;BME280;2914;42.668;23.346;2023-02-10T06:18:39;96218.48;;;-2.99;61.74
5777;BME280;2914;42.668;23.346;2023-02-10T06:21:09;96230.25;;;-2.76;62.03
5777;BME280;2914;42.668;23.346;2023-02-10T06:26:53;96225.84;;;-2.41;61.34
5777;BME280;2914;42.668;23.346;2023-02-10T06:32:00;96229.25;;;-1.57;60.47
5777;BME280;2914;42.668;23.346;2023-02-10T06:37:07;96240.67;;;-1.22;58.27
5777;BME280;2914;42.668;23.346;2023-02-10T06:39:36;96233.53;;;-1.10;57.21
5777;BME280;2914;42.668;23.346;2023-02-10T06:42:05;96229.58;;;-1.06;67.99
5777;BME280;2914;42.668;23.346;2023-02-10T06:44:34;96238.22;;;-0.86;58.59
5777;BME280;2914;42.668;23.346;2023-02-10T06:47:03;96239.65;;;-0.51;57.67
5777;BME280;2914;42.668;23.346;2023-02-10T06:49:32;96240.25;;;-0.38;56.78
5777;BME280;2914;42.668;23.346;2023-02-10T06:52:03;96240.94;;;-0.51;54.84
5777;BME280;2914;42.668;23.346;2023-02-10T06:54:32;96227.75;;;0.15;95.82
5777;BME280;2914;42.668;23.346;2023-02-10T07:00:27;96246.66;;;-0.35;56.95
5777;BME280;2914;42.668;23.346;2023-02-10T07:02:56;96252.61;;;-0.92;56.49
5777;BME280;2914;42.668;23.346;2023-02-10T07:05:25;96257.63;;;-0.63;56.31
5777;BME280;2914;42.668;23.346;2023-02-10T07:07:54;96258.02;;;-0.60;56.13
5777;BME280;2914;42.668;23.346;2023-02-10T07:14:47;96243.46;;;1.25;79.31
5777;BME280;2914;42.668;23.346;2023-02-10T07:17:16;96248.53;;;1.14;58.73
5777;BME280;2914;42.668;23.346;2023-02-10T07:19:45;96224.89;;;1.67;89.29
5777;BME280;2914;42.668;23.346;2023-02-10T07:22:14;96222.98;;;2.27;100.00
5777;BME280;2914;42.668;23.346;2023-02-10T07:24:43;96233.80;;;2.15;59.92
5777;BME280;2914;42.668;23.346;2023-02-10T07:27:12;96244.09;;;2.04;54.58
5777;BME280;2914;42.668;23.346;2023-02-10T07:29:41;96246.21;;;2.07;52.94
5777;BME280;2914;42.668;23.346;2023-02-10T07:32:10;96244.41;;;2.22;53.40
5777;BME280;2914;42.668;23.346;2023-02-10T07:37:58;96245.17;;;2.39;50.40
5777;BME280;2914;42.668;23.346;2023-02-10T07:40:27;96239.50;;;2.26;51.45
5777;BME280;2914;42.668;23.346;2023-02-10T07:42:57;96237.31;;;2.41;51.29
5777;BME280;2914;42.668;23.346;2023-02-10T07:45:26;96237.61;;;2.70;51.13
5777;BME280;2914;42.668;23.346;2023-02-10T07:47:57;96234.05;;;2.73;49.12
5777;BME280;2914;42.668;23.346;2023-02-10T07:50:26;96229.59;;;2.76;50.30
5777;BME280;2914;42.668;23.346;2023-02-10T07:52:55;96236.89;;;2.78;49.68
5777;BME280;2914;42.668;23.346;2023-02-10T07:55:25;96227.36;;;2.77;49.16
5777;BME280;2914;42.668;23.346;2023-02-10T07:57:54;96240.62;;;2.83;48.04
5777;BME280;2914;42.668;23.346;2023-02-10T08:00:23;96240.94;;;2.48;47.93
5777;BME280;2914;42.668;23.346;2023-02-10T08:02:52;96243.24;;;2.58;47.96
5777;BME280;2914;42.668;23.346;2023-02-10T08:05:21;96251.58;;;2.56;47.90
5777;BME280;2914;42.668;23.346;2023-02-10T08:07:50;96250.16;;;2.59;47.05
5777;BME280;2914;42.668;23.346;2023-02-10T08:10:20;96248.63;;;2.53;47.64
5777;BME280;2914;42.668;23.346;2023-02-10T08:12:49;96247.98;;;2.71;47.38
5777;BME280;2914;42.668;23.346;2023-02-10T08:15:18;96248.02;;;2.83;48.24
5777;BME280;2914;42.668;23.346;2023-02-10T08:17:49;96234.66;;;3.04;48.18
5777;BME280;2914;42.668;23.346;2023-02-10T08:20:18;96243.09;;;2.87;47.26
5777;BME280;2914;42.668;23.346;2023-02-10T08:22:47;96236.98;;;3.00;46.81
5777;BME280;2914;42.668;23.346;2023-02-10T08:25:16;96229.48;;;2.79;46.79
5777;BME280;2914;42.668;23.346;2023-02-10T08:27:45;96228.91;;;2.83;47.71
5777;BME280;2914;42.668;23.346;2023-02-10T08:30:15;96229.91;;;2.79;47.16
5777;BME280;2914;42.668;23.346;2023-02-10T08:32:44;96238.84;;;2.60;47.72
5777;BME280;2914;42.668;23.346;2023-02-10T08:35:13;96234.77;;;2.64;47.15
5777;BME280;2914;42.668;23.346;2023-02-10T08:37:42;96234.30;;;2.65;47.54
5777;BME280;2914;42.668;23.346;2023-02-10T08:40:11;96237.67;;;2.55;47.26
5777;BME280;2914;42.668;23.346;2023-02-10T08:42:40;96235.64;;;2.77;47.91
5777;BME280;2914;42.668;23.346;2023-02-10T08:45:10;96237.88;;;2.99;47.82
5777;BME280;2914;42.668;23.346;2023-02-10T08:47:39;96230.06;;;2.99;47.62
5777;BME280;2914;42.668;23.346;2023-02-10T08:50:08;96233.34;;;2.42;46.78
5777;BME280;2914;42.668;23.346;2023-02-10T08:52:37;96229.55;;;2.39;47.21
5777;BME280;2914;42.668;23.346;2023-02-10T08:55:06;96232.64;;;2.37;48.27
5777;BME280;2914;42.668;23.346;2023-02-10T09:00:15;96228.44;;;2.33;50.01
5777;BME280;2914;42.668;23.346;2023-02-10T09:02:44;96223.94;;;1.69;49.53
5777;BME280;2914;42.668;23.346;2023-02-10T09:05:13;96231.06;;;1.20;50.00
5777;BME280;2914;42.668;23.346;2023-02-10T09:07:44;96221.88;;;1.66;49.85
5777;BME280;2914;42.668;23.346;2023-02-10T09:10:15;96225.39;;;1.05;49.02
5777;BME280;2914;42.668;23.346;2023-02-10T09:12:44;96225.38;;;0.74;49.66
5777;BME280;2914;42.668;23.346;2023-02-10T09:15:13;96221.44;;;0.42;50.72
5777;BME280;2914;42.668;23.346;2023-02-10T09:17:45;96214.85;;;0.63;50.27
5777;BME280;2914;42.668;23.346;2023-02-10T09:20:14;96209.61;;;0.32;51.01
5777;BME280;2914;42.668;23.346;2023-02-10T09:22:46;96213.65;;;0.75;50.51
5777;BME280;2914;42.668;23.346;2023-02-10T09:25:15;96218.28;;;0.80;50.31
5777;BME280;2914;42.668;23.346;2023-02-10T09:27:44;96209.96;;;0.18;51.43
5777;BME280;2914;42.668;23.346;2023-02-10T09:30:14;96211.14;;;0.39;51.44
5777;BME280;2914;42.668;23.346;2023-02-10T09:38:28;96209.66;;;1.40;50.64
5777;BME280;2914;42.668;23.346;2023-02-10T09:41:01;96196.95;;;1.59;49.87
5777;BME280;2914;42.668;23.346;2023-02-10T09:46:20;96191.30;;;1.31;49.59
5777;BME280;2914;42.668;23.346;2023-02-10T09:48:53;96192.46;;;0.91;49.96
5777;BME280;2914;42.668;23.346;2023-02-10T09:54:02;96193.52;;;1.58;50.66
5777;BME280;2914;42.668;23.346;2023-02-10T10:05:19;96183.43;;;0.88;50.33
5777;BME280;2914;42.668;23.346;2023-02-10T10:07:51;96178.78;;;1.14;50.24
5777;BME280;2914;42.668;23.346;2023-02-10T10:13:06;96164.30;;;1.35;50.02
5777;BME280;2914;42.668;23.346;2023-02-10T10:18:24;96161.30;;;1.34;49.88
5777;BME280;2914;42.668;23.346;2023-02-10T10:20:56;96156.37;;;1.25;50.12
5777;BME280;2914;42.668;23.346;2023-02-10T10:23:35;96155.95;;;1.39;49.96
5777;BME280;2914;42.668;23.346;2023-02-10T10:26:36;96150.67;;;1.42;49.77
5777;BME280;2914;42.668;23.346;2023-02-10T10:29:17;96149.30;;;1.00;50.34
5777;BME280;2914;42.668;23.346;2023-02-10T10:31:46;96145.91;;;1.28;49.96
5777;BME280;2914;42.668;23.346;2023-02-10T10:34:18;96143.41;;;1.38;49.47
5777;BME280;2914;42.668;23.346;2023-02-10T10:36:50;96134.44;;;1.48;48.92
5777;BME280;2914;42.668;23.346;2023-02-10T10:42:10;96128.52;;;1.70;49.33
5777;BME280;2914;42.668;23.346;2023-02-10T10:44:40;96129.25;;;1.47;49.42
5777;BME280;2914;42.668;23.346;2023-02-10T10:47:13;96128.30;;;1.08;49.83
5777;BME280;2914;42.668;23.346;2023-02-10T10:49:43;96124.81;;;0.94;50.33
5777;BME280;2914;42.668;23.346;2023-02-10T10:52:25;96123.41;;;0.82;50.50
5777;BME280;2914;42.668;23.346;2023-02-10T10:54:56;96125.89;;;0.87;50.66
5777;BME280;2914;42.668;23.346;2023-02-10T10:57:26;96121.17;;;1.14;50.18
5777;BME280;2914;42.668;23.346;2023-02-10T10:59:58;96113.14;;;1.35;49.49
5777;BME280;2914;42.668;23.346;2023-02-10T11:02:28;96108.16;;;1.56;49.17
5777;BME280;2914;42.668;23.346;2023-02-10T11:05:02;96106.68;;;1.62;49.67
5777;BME280;2914;42.668;23.346;2023-02-10T11:07:33;96098.83;;;1.77;49.05
5777;BME280;2914;42.668;23.346;2023-02-10T11:10:04;96103.52;;;1.79;49.15
5777;BME280;2914;42.668;23.346;2023-02-10T11:12:36;96094.00;;;1.92;48.90
5777;BME280;2914;42.668;23.346;2023-02-10T11:17:55;96094.87;;;1.79;48.41
5777;BME280;2914;42.668;23.346;2023-02-10T11:20:26;96092.70;;;1.92;47.96
5777;BME280;2914;42.668;23.346;2023-02-10T11:23:01;96087.08;;;1.91;47.70
5777;BME280;2914;42.668;23.346;2023-02-10T11:25:32;96093.09;;;2.06;47.89
5777;BME280;2914;42.668;23.346;2023-02-10T11:28:03;96084.86;;;2.18;47.03
5777;BME280;2914;42.668;23.346;2023-02-10T11:30:34;96084.16;;;2.13;46.52
5777;BME280;2914;42.668;23.346;2023-02-10T11:33:06;96076.54;;;1.55;47.49
5777;BME280;2914;42.668;23.346;2023-02-10T11:43:35;96060.39;;;1.85;47.42
5777;BME280;2914;42.668;23.346;2023-02-10T11:46:05;96064.40;;;2.08;47.24
5777;BME280;2914;42.668;23.346;2023-02-10T11:48:38;96067.80;;;1.96;47.04
5777;BME280;2914;42.668;23.346;2023-02-10T11:51:13;96068.85;;;2.04;47.00
5777;BME280;2914;42.668;23.346;2023-02-10T11:53:44;96067.47;;;2.19;46.68
5777;BME280;2914;42.668;23.346;2023-02-10T11:56:17;96061.88;;;2.30;46.56
5777;BME280;2914;42.668;23.346;2023-02-10T11:58:58;96058.90;;;2.41;46.39
5777;BME280;2914;42.668;23.346;2023-02-10T12:05:10;96047.38;;;2.58;45.70
5777;BME280;2914;42.668;23.346;2023-02-10T12:07:52;96054.77;;;2.59;45.67
5777;BME280;2914;42.668;23.346;2023-02-10T12:10:27;96048.66;;;2.60;45.63
5777;BME280;2914;42.668;23.346;2023-02-10T12:15:43;96038.20;;;2.83;44.92
5777;BME280;2914;42.668;23.346;2023-02-10T12:18:25;96033.83;;;2.84;44.94
5777;BME280;2914;42.668;23.346;2023-02-10T12:21:05;96027.25;;;2.85;45.52
5777;BME280;2914;42.668;23.346;2023-02-10T12:23:53;96022.72;;;2.91;45.82
5777;BME280;2914;42.668;23.346;2023-02-10T12:26:24;96026.99;;;3.03;45.41
5777;BME280;2914;42.668;23.346;2023-02-10T12:29:00;96023.78;;;2.63;45.08
5777;BME280;2914;42.668;23.346;2023-02-10T12:31:34;96018.12;;;2.40;45.09
5777;BME280;2914;42.668;23.346;2023-02-10T12:34:17;96018.80;;;2.33;45.50
5777;BME280;2914;42.668;23.346;2023-02-10T12:36:50;96022.32;;;2.56;45.40
5777;BME280;2914;42.668;23.346;2023-02-10T12:39:22;96027.01;;;2.58;45.08
5777;BME280;2914;42.668;23.346;2023-02-10T12:48:27;96012.44;;;2.98;45.25
5777;BME280;2914;42.668;23.346;2023-02-10T12:51:06;96009.97;;;2.95;44.42
5777;BME280;2914;42.668;23.346;2023-02-10T12:53:37;96003.30;;;3.10;44.21
5777;BME280;2914;42.668;23.346;2023-02-10T12:56:09;96009.88;;;3.08;44.12
5777;BME280;2914;42.668;23.346;2023-02-10T12:58:43;96007.82;;;3.16;43.57
5777;BME280;2914;42.668;23.346;2023-02-10T13:01:17;96004.05;;;3.23;43.44
5777;BME280;2914;42.668;23.346;2023-02-10T13:03:48;96007.48;;;3.14;43.54
5777;BME280;2914;42.668;23.346;2023-02-10T13:06:29;96010.37;;;3.28;43.92
5777;BME280;2914;42.668;23.346;2023-02-10T13:09:02;96009.66;;;3.25;43.87
5777;BME280;2914;42.668;23.346;2023-02-10T13:11:36;96012.55;;;3.07;43.50
5777;BME280;2914;42.668;23.346;2023-02-10T13:16:50;96002.20;;;3.15;44.05
5777;BME280;2914;42.668;23.346;2023-02-10T13:19:24;96008.32;;;3.14;43.82
5777;BME280;2914;42.668;23.346;2023-02-10T13:21:57;96010.02;;;3.15;43.79
5777;BME280;2914;42.668;23.346;2023-02-10T13:27:10;96009.00;;;2.97;43.68
5777;BME280;2914;42.668;23.346;2023-02-10T13:29:42;96005.07;;;3.09;43.92
5777;BME280;2914;42.668;23.346;2023-02-10T13:35:15;96001.09;;;2.88;44.05
5777;BME280;2914;42.668;23.346;2023-02-10T13:37:47;96003.36;;;3.08;44.01
5777;BME280;2914;42.668;23.346;2023-02-10T13:40:20;96009.14;;;3.04;44.20
5777;BME280;2914;42.668;23.346;2023-02-10T13:42:54;96004.60;;;3.10;44.17
5777;BME280;2914;42.668;23.346;2023-02-10T13:45:26;96012.65;;;3.03;43.99
5777;BME280;2914;42.668;23.346;2023-02-10T13:47:57;96000.82;;;3.07;44.27
5777;BME280;2914;42.668;23.346;2023-02-10T13:53:03;95989.64;;;3.25;44.41
5777;BME280;2914;42.668;23.346;2023-02-10T13:55:42;95998.50;;;3.21;44.51
5777;BME280;2914;42.668;23.346;2023-02-10T13:58:34;95988.80;;;3.25;44.70
5777;BME280;2914;42.668;23.346;2023-02-10T14:01:27;95998.56;;;3.19;45.12
5777;BME280;2914;42.668;23.346;2023-02-10T14:03:34;95993.28;;;3.21;44.88
5777;BME280;2914;42.668;23.346;2023-02-10T14:06:06;95997.59;;;3.32;44.55
5777;BME280;2914;42.668;23.346;2023-02-10T14:08:38;95999.06;;;3.39;44.38
5777;BME280;2914;42.668;23.346;2023-02-10T14:14:03;96000.30;;;3.41;44.85
5777;BME280;2914;42.668;23.346;2023-02-10T14:16:38;95999.06;;;3.39;45.07
5777;BME280;2914;42.668;23.346;2023-02-10T14:19:21;95995.92;;;3.42;45.03
5777;BME280;2914;42.668;23.346;2023-02-10T14:21:52;96000.50;;;3.47;45.06
5777;BME280;2914;42.668;23.346;2023-02-10T14:24:25;95997.76;;;3.50;45.26
5777;BME280;2914;42.668;23.346;2023-02-10T14:26:57;95982.18;;;3.38;45.17
5777;BME280;2914;42.668;23.346;2023-02-10T14:29:28;95998.73;;;3.47;44.90
5777;BME280;2914;42.668;23.346;2023-02-10T14:31:59;96000.70;;;3.52;44.81
5777;BME280;2914;42.668;23.346;2023-02-10T14:34:30;95993.65;;;3.44;45.46
5777;BME280;2914;42.668;23.346;2023-02-10T14:39:39;95984.59;;;3.63;45.20
5777;BME280;2914;42.668;23.346;2023-02-10T14:44:48;95990.03;;;3.79;44.87
5777;BME280;2914;42.668;23.346;2023-02-10T14:52:46;95979.09;;;3.90;44.51
5777;BME280;2914;42.668;23.346;2023-02-10T14:58:28;95983.34;;;4.03;44.57
5777;BME280;2914;42.668;23.346;2023-02-10T15:04:27;95982.70;;;4.08;44.89
5777;BME280;2914;42.668;23.346;2023-02-10T15:09:37;95991.17;;;4.03;45.35
5777;BME280;2914;42.668;23.346;2023-02-10T15:14:45;95995.38;;;3.86;45.75
5777;BME280;2914;42.668;23.346;2023-02-10T15:20:57;95991.13;;;3.84;45.87
5777;BME280;2914;42.668;23.346;2023-02-10T15:26:13;96000.33;;;3.82;45.37
5777;BME280;2914;42.668;23.346;2023-02-10T15:31:24;95999.22;;;3.67;45.14
5777;BME280;2914;42.668;23.346;2023-02-10T15:39:59;96006.64;;;3.66;46.32
5777;BME280;2914;42.668;23.346;2023-02-10T15:45:14;96003.77;;;3.62;46.27
5777;BME280;2914;42.668;23.346;2023-02-10T15:51:26;96010.09;;;3.56;46.85
5777;BME280;2914;42.668;23.346;2023-02-10T15:56:35;96014.91;;;3.55;47.24
5777;BME280;2914;42.668;23.346;2023-02-10T16:01:44;96024.05;;;3.45;47.69
5777;BME280;2914;42.668;23.346;2023-02-10T16:04:13;96015.28;;;3.36;47.96
5777;BME280;2914;42.668;23.346;2023-02-10T16:06:42;96018.73;;;3.36;48.08
5777;BME280;2914;42.668;23.346;2023-02-10T16:09:11;96022.64;;;3.36;48.21
5777;BME280;2914;42.668;23.346;2023-02-10T16:14:17;96023.41;;;3.28;48.67
5777;BME280;2914;42.668;23.346;2023-02-10T16:16:49;96031.09;;;3.21;49.02
5777;BME280;2914;42.668;23.346;2023-02-10T16:22:04;96039.11;;;3.16;49.55
5777;BME280;2914;42.668;23.346;2023-02-10T16:27:11;96033.75;;;3.09;49.95
5777;BME280;2914;42.668;23.346;2023-02-10T16:33:23;96044.97;;;2.99;50.57
5777;BME280;2914;42.668;23.346;2023-02-10T16:35:53;96051.80;;;2.92;50.67
5777;BME280;2914;42.668;23.346;2023-02-10T16:38:22;96052.20;;;2.93;50.65
5777;BME280;2914;42.668;23.346;2023-02-10T16:40:51;96056.33;;;2.86;50.83
5777;BME280;2914;42.668;23.346;2023-02-10T16:43:20;96055.58;;;2.83;51.09
5777;BME280;2914;42.668;23.346;2023-02-10T16:45:49;96059.19;;;2.80;51.27
5777;BME280;2914;42.668;23.346;2023-02-10T16:50:55;96056.17;;;2.79;51.62
5777;BME280;2914;42.668;23.346;2023-02-10T16:53:25;96057.69;;;2.73;51.60
5777;BME280;2914;42.668;23.346;2023-02-10T16:55:54;96061.66;;;2.71;51.71
5777;BME280;2914;42.668;23.346;2023-02-10T16:58:23;96054.77;;;2.59;52.00